sensor_id;sensor_type;location;lat;lon;timestamp;P1;durP1;ratioP1;P2;durP2;ratioP2
4214;SDS011;2121;48.062;7.850;2022-10-13T00:00:43;19.93;;;11.53;;
4214;SDS011;2121;48.062;7.850;2022-10-13T00:03:10;17.70;;;12.47;;
4214;SDS011;2121;48.062;7.850;2022-10-13T00:05:54;14.93;;;11.60;;
4214;SDS011;2121;48.062;7.850;2022-10-13T00:08:20;13.70;;;10.33;;
4214;SDS011;2121;48.062;7.850;2022-10-13T00:10:47;17.37;;;11.40;;
4214;SDS011;2121;48.062;7.850;2022-10-13T00:13:14;18.07;;;12.30;;
4214;SDS011;2121;48.062;7.850;2022-10-13T00:15:42;15.70;;;11.47;;
4214;SDS011;2121;48.062;7.850;2022-10-13T00:18:10;16.00;;;11.23;;
4214;SDS011;2121;48.062;7.850;2022-10-13T00:20:39;19.50;;;10.90;;
4214;SDS011;2121;48.062;7.850;2022-10-13T00:23:11;26.40;;;12.27;;
4214;SDS011;2121;48.062;7.850;2022-10-13T00:25:41;15.97;;;10.00;;
4214;SDS011;2121;48.062;7.850;2022-10-13T00:28:09;17.13;;;11.47;;
4214;SDS011;2121;48.062;7.850;2022-10-13T00:30:35;15.90;;;10.93;;
4214;SDS011;2121;48.062;7.850;2022-10-13T00:33:02;21.03;;;11.00;;
4214;SDS011;2121;48.062;7.850;2022-10-13T00:35:28;12.87;;;10.53;;
4214;SDS011;2121;48.062;7.850;2022-10-13T00:37:54;17.40;;;11.00;;
4214;SDS011;2121;48.062;7.850;2022-10-13T00:40:19;19.63;;;11.63;;
4214;SDS011;2121;48.062;7.850;2022-10-13T00:42:45;32.50;;;12.00;;
4214;SDS011;2121;48.062;7.850;2022-10-13T00:47:55;16.70;;;10.37;;
4214;SDS011;2121;48.062;7.850;2022-10-13T00:50:46;16.60;;;10.23;;
4214;SDS011;2121;48.062;7.850;2022-10-13T00:53:11;23.90;;;11.47;;
4214;SDS011;2121;48.062;7.850;2022-10-13T00:55:39;19.00;;;10.53;;
4214;SDS011;2121;48.062;7.850;2022-10-13T00:58:07;14.37;;;10.50;;
4214;SDS011;2121;48.062;7.850;2022-10-13T01:00:39;18.23;;;10.77;;
4214;SDS011;2121;48.062;7.850;2022-10-13T01:03:09;14.10;;;10.30;;
4214;SDS011;2121;48.062;7.850;2022-10-13T01:05:35;67.93;;;13.87;;
4214;SDS011;2121;48.062;7.850;2022-10-13T01:08:03;19.03;;;12.00;;
4214;SDS011;2121;48.062;7.850;2022-10-13T01:10:44;20.57;;;12.43;;
4214;SDS011;2121;48.062;7.850;2022-10-13T01:13:42;18.90;;;10.40;;
4214;SDS011;2121;48.062;7.850;2022-10-13T01:28:14;13.53;;;9.07;;
4214;SDS011;2121;48.062;7.850;2022-10-13T01:31:25;12.50;;;10.20;;
4214;SDS011;2121;48.062;7.850;2022-10-13T01:39:26;14.03;;;9.97;;
4214;SDS011;2121;48.062;7.850;2022-10-13T01:42:18;14.53;;;9.67;;
4214;SDS011;2121;48.062;7.850;2022-10-13T01:44:56;14.03;;;9.10;;
4214;SDS011;2121;48.062;7.850;2022-10-13T01:47:25;17.40;;;10.00;;
4214;SDS011;2121;48.062;7.850;2022-10-13T01:49:54;11.77;;;9.17;;
4214;SDS011;2121;48.062;7.850;2022-10-13T01:52:22;20.90;;;9.23;;
4214;SDS011;2121;48.062;7.850;2022-10-13T01:54:51;16.20;;;9.40;;
4214;SDS011;2121;48.062;7.850;2022-10-13T01:57:28;10.90;;;9.03;;
4214;SDS011;2121;48.062;7.850;2022-10-13T02:00:02;13.00;;;9.50;;
4214;SDS011;2121;48.062;7.850;2022-10-13T02:10:56;17.40;;;10.20;;
4214;SDS011;2121;48.062;7.850;2022-10-13T02:13:31;12.20;;;8.57;;
4214;SDS011;2121;48.062;7.850;2022-10-13T02:16:00;11.87;;;8.70;;
4214;SDS011;2121;48.062;7.850;2022-10-13T02:18:30;13.70;;;9.53;;
4214;SDS011;2121;48.062;7.850;2022-10-13T02:20:59;12.83;;;9.17;;
4214;SDS011;2121;48.062;7.850;2022-10-13T02:23:27;18.47;;;10.13;;
4214;SDS011;2121;48.062;7.850;2022-10-13T02:25:54;12.10;;;8.70;;
4214;SDS011;2121;48.062;7.850;2022-10-13T02:28:21;16.17;;;8.97;;
4214;SDS011;2121;48.062;7.850;2022-10-13T02:30:48;14.63;;;10.07;;
4214;SDS011;2121;48.062;7.850;2022-10-13T02:33:15;16.80;;;11.27;;
4214;SDS011;2121;48.062;7.850;2022-10-13T02:35:41;14.10;;;9.33;;
4214;SDS011;2121;48.062;7.850;2022-10-13T02:38:07;19.30;;;9.00;;
4214;SDS011;2121;48.062;7.850;2022-10-13T02:40:34;18.63;;;11.10;;
4214;SDS011;2121;48.062;7.850;2022-10-13T02:43:00;20.93;;;9.93;;
4214;SDS011;2121;48.062;7.850;2022-10-13T02:45:26;20.43;;;9.30;;
4214;SDS011;2121;48.062;7.850;2022-10-13T02:47:52;9.70;;;8.20;;
4214;SDS011;2121;48.062;7.850;2022-10-13T02:50:17;16.67;;;9.13;;
4214;SDS011;2121;48.062;7.850;2022-10-13T02:52:43;16.37;;;9.60;;
4214;SDS011;2121;48.062;7.850;2022-10-13T02:55:09;15.13;;;9.00;;
4214;SDS011;2121;48.062;7.850;2022-10-13T02:57:37;12.57;;;9.40;;
4214;SDS011;2121;48.062;7.850;2022-10-13T03:00:04;14.70;;;9.20;;
4214;SDS011;2121;48.062;7.850;2022-10-13T03:02:31;13.33;;;8.30;;
4214;SDS011;2121;48.062;7.850;2022-10-13T03:04:57;11.40;;;7.73;;
4214;SDS011;2121;48.062;7.850;2022-10-13T03:07:22;17.93;;;8.17;;
4214;SDS011;2121;48.062;7.850;2022-10-13T03:09:48;12.80;;;8.13;;
4214;SDS011;2121;48.062;7.850;2022-10-13T03:12:14;10.43;;;7.27;;
4214;SDS011;2121;48.062;7.850;2022-10-13T03:14:39;14.73;;;8.10;;
4214;SDS011;2121;48.062;7.850;2022-10-13T03:17:05;11.77;;;7.80;;
4214;SDS011;2121;48.062;7.850;2022-10-13T03:19:31;13.23;;;8.27;;
4214;SDS011;2121;48.062;7.850;2022-10-13T03:21:57;12.37;;;9.50;;
4214;SDS011;2121;48.062;7.850;2022-10-13T03:24:25;14.37;;;8.60;;
4214;SDS011;2121;48.062;7.850;2022-10-13T03:26:51;11.53;;;8.77;;
4214;SDS011;2121;48.062;7.850;2022-10-13T03:29:17;17.13;;;9.43;;
4214;SDS011;2121;48.062;7.850;2022-10-13T03:31:43;23.00;;;8.00;;
4214;SDS011;2121;48.062;7.850;2022-10-13T03:34:09;9.53;;;8.30;;
4214;SDS011;2121;48.062;7.850;2022-10-13T03:36:36;17.83;;;8.90;;
4214;SDS011;2121;48.062;7.850;2022-10-13T03:39:03;11.43;;;8.40;;
4214;SDS011;2121;48.062;7.850;2022-10-13T03:41:28;9.93;;;7.20;;
4214;SDS011;2121;48.062;7.850;2022-10-13T03:43:54;13.20;;;8.10;;
4214;SDS011;2121;48.062;7.850;2022-10-13T03:46:20;12.03;;;8.30;;
4214;SDS011;2121;48.062;7.850;2022-10-13T03:48:49;15.07;;;9.00;;
4214;SDS011;2121;48.062;7.850;2022-10-13T03:51:15;11.07;;;9.13;;
4214;SDS011;2121;48.062;7.850;2022-10-13T03:53:44;9.20;;;7.67;;
4214;SDS011;2121;48.062;7.850;2022-10-13T03:56:15;15.63;;;8.20;;
4214;SDS011;2121;48.062;7.850;2022-10-13T03:58:47;9.67;;;8.33;;
4214;SDS011;2121;48.062;7.850;2022-10-13T04:01:18;10.53;;;7.40;;
4214;SDS011;2121;48.062;7.850;2022-10-13T04:03:47;11.37;;;7.47;;
4214;SDS011;2121;48.062;7.850;2022-10-13T04:06:13;8.30;;;7.30;;
4214;SDS011;2121;48.062;7.850;2022-10-13T04:08:40;14.43;;;8.53;;
4214;SDS011;2121;48.062;7.850;2022-10-13T04:11:10;14.53;;;8.47;;
4214;SDS011;2121;48.062;7.850;2022-10-13T04:13:37;15.13;;;9.90;;
4214;SDS011;2121;48.062;7.850;2022-10-13T04:18:39;17.83;;;9.07;;
4214;SDS011;2121;48.062;7.850;2022-10-13T04:21:06;18.87;;;9.23;;
4214;SDS011;2121;48.062;7.850;2022-10-13T04:23:37;14.73;;;8.50;;
4214;SDS011;2121;48.062;7.850;2022-10-13T04:26:03;11.60;;;8.33;;
4214;SDS011;2121;48.062;7.850;2022-10-13T04:28:30;13.90;;;9.27;;
4214;SDS011;2121;48.062;7.850;2022-10-13T04:31:00;14.97;;;8.33;;
4214;SDS011;2121;48.062;7.850;2022-10-13T04:33:28;12.17;;;8.40;;
4214;SDS011;2121;48.062;7.850;2022-10-13T04:35:54;17.57;;;9.07;;
4214;SDS011;2121;48.062;7.850;2022-10-13T04:38:20;16.77;;;10.33;;
4214;SDS011;2121;48.062;7.850;2022-10-13T04:40:46;11.93;;;8.60;;
4214;SDS011;2121;48.062;7.850;2022-10-13T04:43:12;12.50;;;8.77;;
4214;SDS011;2121;48.062;7.850;2022-10-13T04:45:39;10.97;;;8.23;;
4214;SDS011;2121;48.062;7.850;2022-10-13T04:48:05;10.30;;;7.87;;
4214;SDS011;2121;48.062;7.850;2022-10-13T04:50:31;13.00;;;9.10;;
4214;SDS011;2121;48.062;7.850;2022-10-13T04:52:57;17.33;;;8.30;;
4214;SDS011;2121;48.062;7.850;2022-10-13T04:55:23;13.40;;;8.67;;
4214;SDS011;2121;48.062;7.850;2022-10-13T04:57:49;12.93;;;9.97;;
4214;SDS011;2121;48.062;7.850;2022-10-13T05:00:15;11.30;;;8.80;;
4214;SDS011;2121;48.062;7.850;2022-10-13T05:02:41;12.83;;;9.90;;
4214;SDS011;2121;48.062;7.850;2022-10-13T05:05:07;14.87;;;10.07;;
4214;SDS011;2121;48.062;7.850;2022-10-13T05:07:34;19.07;;;8.70;;
4214;SDS011;2121;48.062;7.850;2022-10-13T05:09:59;12.50;;;7.73;;
4214;SDS011;2121;48.062;7.850;2022-10-13T05:12:25;12.80;;;8.00;;
4214;SDS011;2121;48.062;7.850;2022-10-13T05:14:51;11.80;;;8.33;;
4214;SDS011;2121;48.062;7.850;2022-10-13T05:17:17;11.93;;;7.40;;
4214;SDS011;2121;48.062;7.850;2022-10-13T05:19:42;10.93;;;8.30;;
4214;SDS011;2121;48.062;7.850;2022-10-13T05:22:15;14.83;;;9.40;;
4214;SDS011;2121;48.062;7.850;2022-10-13T05:24:41;19.43;;;9.00;;
4214;SDS011;2121;48.062;7.850;2022-10-13T05:27:10;16.73;;;9.20;;
4214;SDS011;2121;48.062;7.850;2022-10-13T05:29:37;18.90;;;7.97;;
4214;SDS011;2121;48.062;7.850;2022-10-13T05:32:04;11.70;;;8.50;;
4214;SDS011;2121;48.062;7.850;2022-10-13T05:34:31;12.37;;;9.27;;
4214;SDS011;2121;48.062;7.850;2022-10-13T05:36:57;15.77;;;8.80;;
4214;SDS011;2121;48.062;7.850;2022-10-13T05:39:24;11.60;;;7.83;;
4214;SDS011;2121;48.062;7.850;2022-10-13T05:41:51;12.07;;;8.50;;
4214;SDS011;2121;48.062;7.850;2022-10-13T05:44:17;20.43;;;9.63;;
4214;SDS011;2121;48.062;7.850;2022-10-13T05:46:43;10.73;;;7.20;;
4214;SDS011;2121;48.062;7.850;2022-10-13T05:49:08;10.33;;;8.87;;
4214;SDS011;2121;48.062;7.850;2022-10-13T05:51:39;31.47;;;9.13;;
4214;SDS011;2121;48.062;7.850;2022-10-13T05:54:12;10.90;;;7.87;;
4214;SDS011;2121;48.062;7.850;2022-10-13T05:57:13;20.63;;;8.73;;
4214;SDS011;2121;48.062;7.850;2022-10-13T05:59:54;12.33;;;7.80;;
4214;SDS011;2121;48.062;7.850;2022-10-13T06:02:27;13.47;;;8.17;;
4214;SDS011;2121;48.062;7.850;2022-10-13T06:05:02;11.80;;;7.60;;
4214;SDS011;2121;48.062;7.850;2022-10-13T06:07:30;16.37;;;9.17;;
4214;SDS011;2121;48.062;7.850;2022-10-13T06:09:56;12.13;;;7.80;;
4214;SDS011;2121;48.062;7.850;2022-10-13T06:12:22;16.40;;;7.07;;
4214;SDS011;2121;48.062;7.850;2022-10-13T06:14:48;17.73;;;9.37;;
4214;SDS011;2121;48.062;7.850;2022-10-13T06:17:14;18.37;;;10.63;;
4214;SDS011;2121;48.062;7.850;2022-10-13T06:19:40;13.20;;;9.47;;
4214;SDS011;2121;48.062;7.850;2022-10-13T06:22:06;23.23;;;9.30;;
4214;SDS011;2121;48.062;7.850;2022-10-13T06:24:32;17.40;;;8.23;;
4214;SDS011;2121;48.062;7.850;2022-10-13T06:26:58;15.47;;;9.07;;
4214;SDS011;2121;48.062;7.850;2022-10-13T06:29:24;16.97;;;9.07;;
4214;SDS011;2121;48.062;7.850;2022-10-13T06:31:49;19.60;;;11.60;;
4214;SDS011;2121;48.062;7.850;2022-10-13T06:34:15;18.33;;;8.10;;
4214;SDS011;2121;48.062;7.850;2022-10-13T06:36:41;18.73;;;11.40;;
4214;SDS011;2121;48.062;7.850;2022-10-13T06:39:07;15.60;;;10.43;;
4214;SDS011;2121;48.062;7.850;2022-10-13T06:41:33;16.70;;;10.90;;
4214;SDS011;2121;48.062;7.850;2022-10-13T06:43:59;12.93;;;9.47;;
4214;SDS011;2121;48.062;7.850;2022-10-13T06:46:24;18.27;;;9.70;;
4214;SDS011;2121;48.062;7.850;2022-10-13T06:48:50;14.63;;;9.50;;
4214;SDS011;2121;48.062;7.850;2022-10-13T06:51:16;19.67;;;9.63;;
4214;SDS011;2121;48.062;7.850;2022-10-13T06:53:42;16.20;;;10.43;;
4214;SDS011;2121;48.062;7.850;2022-10-13T06:56:08;19.37;;;11.93;;
4214;SDS011;2121;48.062;7.850;2022-10-13T06:58:34;20.87;;;12.07;;
4214;SDS011;2121;48.062;7.850;2022-10-13T07:01:01;23.83;;;12.90;;
4214;SDS011;2121;48.062;7.850;2022-10-13T07:03:28;20.17;;;12.23;;
4214;SDS011;2121;48.062;7.850;2022-10-13T07:05:53;20.53;;;12.47;;
4214;SDS011;2121;48.062;7.850;2022-10-13T07:08:27;22.30;;;11.40;;
4214;SDS011;2121;48.062;7.850;2022-10-13T07:10:53;16.80;;;11.43;;
4214;SDS011;2121;48.062;7.850;2022-10-13T07:13:19;19.70;;;12.03;;
4214;SDS011;2121;48.062;7.850;2022-10-13T07:15:45;16.40;;;10.80;;
4214;SDS011;2121;48.062;7.850;2022-10-13T07:18:10;14.30;;;10.30;;
4214;SDS011;2121;48.062;7.850;2022-10-13T07:20:36;15.13;;;10.77;;
4214;SDS011;2121;48.062;7.850;2022-10-13T07:23:02;23.77;;;10.77;;
4214;SDS011;2121;48.062;7.850;2022-10-13T07:25:28;15.10;;;10.90;;
4214;SDS011;2121;48.062;7.850;2022-10-13T07:27:53;19.60;;;11.23;;
4214;SDS011;2121;48.062;7.850;2022-10-13T07:30:19;23.03;;;11.67;;
4214;SDS011;2121;48.062;7.850;2022-10-13T07:32:45;18.60;;;12.83;;
4214;SDS011;2121;48.062;7.850;2022-10-13T07:35:11;21.00;;;12.57;;
4214;SDS011;2121;48.062;7.850;2022-10-13T07:37:37;17.83;;;12.50;;
4214;SDS011;2121;48.062;7.850;2022-10-13T07:40:04;19.30;;;12.40;;
4214;SDS011;2121;48.062;7.850;2022-10-13T07:42:31;25.60;;;14.90;;
4214;SDS011;2121;48.062;7.850;2022-10-13T07:44:57;20.33;;;14.83;;
4214;SDS011;2121;48.062;7.850;2022-10-13T07:47:23;17.93;;;12.67;;
4214;SDS011;2121;48.062;7.850;2022-10-13T07:49:49;19.27;;;13.87;;
4214;SDS011;2121;48.062;7.850;2022-10-13T07:52:14;20.40;;;14.17;;
4214;SDS011;2121;48.062;7.850;2022-10-13T07:54:40;23.43;;;13.90;;
4214;SDS011;2121;48.062;7.850;2022-10-13T07:57:06;26.03;;;14.30;;
4214;SDS011;2121;48.062;7.850;2022-10-13T07:59:33;21.73;;;12.60;;
4214;SDS011;2121;48.062;7.850;2022-10-13T08:02:00;19.40;;;13.63;;
4214;SDS011;2121;48.062;7.850;2022-10-13T08:04:29;18.77;;;12.63;;
4214;SDS011;2121;48.062;7.850;2022-10-13T08:06:56;19.37;;;14.03;;
4214;SDS011;2121;48.062;7.850;2022-10-13T08:09:23;17.17;;;12.43;;
4214;SDS011;2121;48.062;7.850;2022-10-13T08:11:50;23.10;;;13.20;;
4214;SDS011;2121;48.062;7.850;2022-10-13T08:14:16;25.27;;;13.73;;
4214;SDS011;2121;48.062;7.850;2022-10-13T08:16:44;17.43;;;12.37;;
4214;SDS011;2121;48.062;7.850;2022-10-13T08:19:11;22.50;;;13.43;;
4214;SDS011;2121;48.062;7.850;2022-10-13T08:21:39;15.27;;;12.40;;
4214;SDS011;2121;48.062;7.850;2022-10-13T08:24:09;18.17;;;12.50;;
4214;SDS011;2121;48.062;7.850;2022-10-13T08:26:37;19.10;;;12.80;;
4214;SDS011;2121;48.062;7.850;2022-10-13T08:29:04;19.70;;;12.30;;
4214;SDS011;2121;48.062;7.850;2022-10-13T08:31:29;21.40;;;13.97;;
4214;SDS011;2121;48.062;7.850;2022-10-13T08:33:55;18.30;;;11.80;;
4214;SDS011;2121;48.062;7.850;2022-10-13T08:36:21;21.80;;;12.60;;
4214;SDS011;2121;48.062;7.850;2022-10-13T08:38:47;17.70;;;12.00;;
4214;SDS011;2121;48.062;7.850;2022-10-13T08:43:48;15.77;;;11.87;;
4214;SDS011;2121;48.062;7.850;2022-10-13T08:46:24;22.30;;;12.70;;
4214;SDS011;2121;48.062;7.850;2022-10-13T08:48:53;24.37;;;14.63;;
4214;SDS011;2121;48.062;7.850;2022-10-13T08:51:20;24.03;;;13.17;;
4214;SDS011;2121;48.062;7.850;2022-10-13T08:53:46;20.10;;;12.30;;
4214;SDS011;2121;48.062;7.850;2022-10-13T08:56:18;17.90;;;10.93;;
4214;SDS011;2121;48.062;7.850;2022-10-13T08:58:50;23.50;;;12.90;;
4214;SDS011;2121;48.062;7.850;2022-10-13T09:01:19;25.77;;;11.60;;
4214;SDS011;2121;48.062;7.850;2022-10-13T09:06:51;16.67;;;10.43;;
4214;SDS011;2121;48.062;7.850;2022-10-13T09:09:27;20.73;;;11.60;;
4214;SDS011;2121;48.062;7.850;2022-10-13T09:11:53;15.17;;;10.00;;
4214;SDS011;2121;48.062;7.850;2022-10-13T09:14:23;12.53;;;10.43;;
4214;SDS011;2121;48.062;7.850;2022-10-13T09:20:15;17.70;;;10.53;;
4214;SDS011;2121;48.062;7.850;2022-10-13T09:23:02;19.47;;;10.80;;
4214;SDS011;2121;48.062;7.850;2022-10-13T09:25:41;18.07;;;11.60;;
4214;SDS011;2121;48.062;7.850;2022-10-13T09:28:14;21.80;;;11.77;;
4214;SDS011;2121;48.062;7.850;2022-10-13T09:30:44;21.63;;;12.57;;
4214;SDS011;2121;48.062;7.850;2022-10-13T09:35:41;14.93;;;9.93;;
4214;SDS011;2121;48.062;7.850;2022-10-13T09:38:12;16.67;;;10.80;;
4214;SDS011;2121;48.062;7.850;2022-10-13T09:43:42;14.80;;;10.57;;
4214;SDS011;2121;48.062;7.850;2022-10-13T09:46:56;14.03;;;10.47;;
4214;SDS011;2121;48.062;7.850;2022-10-13T09:49:38;17.40;;;12.27;;
4214;SDS011;2121;48.062;7.850;2022-10-13T09:57:38;14.03;;;9.73;;
4214;SDS011;2121;48.062;7.850;2022-10-13T10:02:35;18.17;;;10.67;;
4214;SDS011;2121;48.062;7.850;2022-10-13T10:05:17;23.60;;;10.83;;
4214;SDS011;2121;48.062;7.850;2022-10-13T10:07:48;14.10;;;10.23;;
4214;SDS011;2121;48.062;7.850;2022-10-13T10:10:22;13.27;;;10.40;;
4214;SDS011;2121;48.062;7.850;2022-10-13T10:12:58;14.13;;;8.60;;
4214;SDS011;2121;48.062;7.850;2022-10-13T10:15:28;14.90;;;10.43;;
4214;SDS011;2121;48.062;7.850;2022-10-13T10:18:11;12.47;;;9.40;;
4214;SDS011;2121;48.062;7.850;2022-10-13T10:20:52;14.73;;;9.30;;
4214;SDS011;2121;48.062;7.850;2022-10-13T10:23:42;15.60;;;9.73;;
4214;SDS011;2121;48.062;7.850;2022-10-13T10:26:23;18.30;;;7.70;;
4214;SDS011;2121;48.062;7.850;2022-10-13T10:29:23;14.77;;;9.43;;
4214;SDS011;2121;48.062;7.850;2022-10-13T10:32:11;17.30;;;8.80;;
4214;SDS011;2121;48.062;7.850;2022-10-13T10:35:15;11.70;;;9.10;;
4214;SDS011;2121;48.062;7.850;2022-10-13T10:38:11;13.03;;;8.63;;
4214;SDS011;2121;48.062;7.850;2022-10-13T10:41:44;17.63;;;8.00;;
4214;SDS011;2121;48.062;7.850;2022-10-13T10:47:10;9.57;;;7.70;;
4214;SDS011;2121;48.062;7.850;2022-10-13T10:50:04;10.93;;;7.77;;
4214;SDS011;2121;48.062;7.850;2022-10-13T10:53:15;14.23;;;8.13;;
4214;SDS011;2121;48.062;7.850;2022-10-13T10:58:35;16.13;;;7.00;;
4214;SDS011;2121;48.062;7.850;2022-10-13T11:06:54;9.37;;;6.03;;
4214;SDS011;2121;48.062;7.850;2022-10-13T11:12:20;12.53;;;6.10;;
4214;SDS011;2121;48.062;7.850;2022-10-13T11:17:37;6.97;;;4.07;;
4214;SDS011;2121;48.062;7.850;2022-10-13T11:25:36;8.20;;;4.10;;
4214;SDS011;2121;48.062;7.850;2022-10-13T11:39:27;12.03;;;5.33;;
4214;SDS011;2121;48.062;7.850;2022-10-13T11:45:15;12.80;;;4.80;;
4214;SDS011;2121;48.062;7.850;2022-10-13T11:51:05;13.43;;;4.50;;
4214;SDS011;2121;48.062;7.850;2022-10-13T11:53:53;15.40;;;4.40;;
4214;SDS011;2121;48.062;7.850;2022-10-13T11:56:35;10.43;;;4.53;;
4214;SDS011;2121;48.062;7.850;2022-10-13T12:01:59;9.47;;;4.63;;
4214;SDS011;2121;48.062;7.850;2022-10-13T12:04:37;10.03;;;5.27;;
4214;SDS011;2121;48.062;7.850;2022-10-13T12:07:06;13.10;;;5.20;;
4214;SDS011;2121;48.062;7.850;2022-10-13T12:09:53;6.97;;;5.50;;
4214;SDS011;2121;48.062;7.850;2022-10-13T12:12:21;11.53;;;4.67;;
4214;SDS011;2121;48.062;7.850;2022-10-13T12:14:49;9.40;;;4.40;;
4214;SDS011;2121;48.062;7.850;2022-10-13T12:19:48;7.43;;;4.40;;
4214;SDS011;2121;48.062;7.850;2022-10-13T12:22:14;5.63;;;4.33;;
4214;SDS011;2121;48.062;7.850;2022-10-13T12:24:40;8.67;;;4.40;;
4214;SDS011;2121;48.062;7.850;2022-10-13T12:27:10;9.50;;;4.67;;
4214;SDS011;2121;48.062;7.850;2022-10-13T12:29:45;15.67;;;5.70;;
4214;SDS011;2121;48.062;7.850;2022-10-13T12:32:18;9.50;;;4.37;;
4214;SDS011;2121;48.062;7.850;2022-10-13T12:34:47;5.03;;;3.73;;
4214;SDS011;2121;48.062;7.850;2022-10-13T12:37:31;5.97;;;3.97;;
4214;SDS011;2121;48.062;7.850;2022-10-13T12:40:00;5.70;;;4.30;;
4214;SDS011;2121;48.062;7.850;2022-10-13T12:42:29;9.00;;;4.30;;
4214;SDS011;2121;48.062;7.850;2022-10-13T12:44:58;10.50;;;4.93;;
4214;SDS011;2121;48.062;7.850;2022-10-13T12:52:51;5.50;;;3.30;;
4214;SDS011;2121;48.062;7.850;2022-10-13T12:55:27;10.80;;;4.20;;
4214;SDS011;2121;48.062;7.850;2022-10-13T12:57:53;4.40;;;3.30;;
4214;SDS011;2121;48.062;7.850;2022-10-13T13:00:24;8.87;;;4.50;;
4214;SDS011;2121;48.062;7.850;2022-10-13T13:02:53;9.40;;;4.70;;
4214;SDS011;2121;48.062;7.850;2022-10-13T13:08:23;9.93;;;4.03;;
4214;SDS011;2121;48.062;7.850;2022-10-13T13:11:02;11.17;;;4.57;;
4214;SDS011;2121;48.062;7.850;2022-10-13T13:13:33;15.03;;;4.43;;
4214;SDS011;2121;48.062;7.850;2022-10-13T13:16:41;4.73;;;4.33;;
4214;SDS011;2121;48.062;7.850;2022-10-13T13:18:48;10.23;;;4.90;;
4214;SDS011;2121;48.062;7.850;2022-10-13T13:21:16;7.10;;;4.50;;
4214;SDS011;2121;48.062;7.850;2022-10-13T13:23:44;8.97;;;4.03;;
4214;SDS011;2121;48.062;7.850;2022-10-13T13:26:16;9.63;;;4.90;;
4214;SDS011;2121;48.062;7.850;2022-10-13T13:28:50;16.93;;;4.60;;
4214;SDS011;2121;48.062;7.850;2022-10-13T13:31:19;15.67;;;6.33;;
4214;SDS011;2121;48.062;7.850;2022-10-13T13:33:50;12.70;;;5.13;;
4214;SDS011;2121;48.062;7.850;2022-10-13T13:36:20;5.57;;;4.03;;
4214;SDS011;2121;48.062;7.850;2022-10-13T13:38:48;6.30;;;4.57;;
4214;SDS011;2121;48.062;7.850;2022-10-13T13:41:17;9.03;;;4.10;;
4214;SDS011;2121;48.062;7.850;2022-10-13T13:43:43;6.30;;;4.70;;
4214;SDS011;2121;48.062;7.850;2022-10-13T13:46:19;9.20;;;5.00;;
4214;SDS011;2121;48.062;7.850;2022-10-13T13:48:48;13.70;;;4.90;;
4214;SDS011;2121;48.062;7.850;2022-10-13T13:51:14;7.73;;;4.77;;
4214;SDS011;2121;48.062;7.850;2022-10-13T13:53:40;8.93;;;4.47;;
4214;SDS011;2121;48.062;7.850;2022-10-13T13:56:13;9.07;;;4.90;;
4214;SDS011;2121;48.062;7.850;2022-10-13T13:58:41;8.33;;;4.50;;
4214;SDS011;2121;48.062;7.850;2022-10-13T14:01:08;7.80;;;4.70;;
4214;SDS011;2121;48.062;7.850;2022-10-13T14:03:35;5.40;;;4.27;;
4214;SDS011;2121;48.062;7.850;2022-10-13T14:06:01;8.63;;;5.03;;
4214;SDS011;2121;48.062;7.850;2022-10-13T14:08:33;5.57;;;4.87;;
4214;SDS011;2121;48.062;7.850;2022-10-13T14:11:05;7.10;;;5.00;;
4214;SDS011;2121;48.062;7.850;2022-10-13T14:13:32;8.07;;;4.70;;
4214;SDS011;2121;48.062;7.850;2022-10-13T14:15:59;9.13;;;4.90;;
4214;SDS011;2121;48.062;7.850;2022-10-13T14:18:26;9.00;;;5.60;;
4214;SDS011;2121;48.062;7.850;2022-10-13T14:20:52;8.33;;;4.43;;
4214;SDS011;2121;48.062;7.850;2022-10-13T14:23:18;9.90;;;5.47;;
4214;SDS011;2121;48.062;7.850;2022-10-13T14:25:44;11.40;;;5.60;;
4214;SDS011;2121;48.062;7.850;2022-10-13T14:28:10;5.47;;;4.77;;
4214;SDS011;2121;48.062;7.850;2022-10-13T14:30:39;9.50;;;5.10;;
4214;SDS011;2121;48.062;7.850;2022-10-13T14:33:05;8.83;;;4.97;;
4214;SDS011;2121;48.062;7.850;2022-10-13T14:35:32;14.40;;;6.30;;
4214;SDS011;2121;48.062;7.850;2022-10-13T14:37:58;13.10;;;5.40;;
4214;SDS011;2121;48.062;7.850;2022-10-13T14:40:24;8.23;;;5.43;;
4214;SDS011;2121;48.062;7.850;2022-10-13T14:42:49;8.10;;;4.73;;
4214;SDS011;2121;48.062;7.850;2022-10-13T14:45:15;7.00;;;5.10;;
4214;SDS011;2121;48.062;7.850;2022-10-13T14:47:41;10.13;;;4.93;;
4214;SDS011;2121;48.062;7.850;2022-10-13T14:50:07;14.20;;;5.40;;
4214;SDS011;2121;48.062;7.850;2022-10-13T14:52:34;5.77;;;4.93;;
4214;SDS011;2121;48.062;7.850;2022-10-13T14:54:59;9.90;;;5.13;;
4214;SDS011;2121;48.062;7.850;2022-10-13T14:57:25;7.03;;;4.47;;
4214;SDS011;2121;48.062;7.850;2022-10-13T14:59:51;5.73;;;5.20;;
4214;SDS011;2121;48.062;7.850;2022-10-13T15:02:17;12.30;;;5.50;;
4214;SDS011;2121;48.062;7.850;2022-10-13T15:04:43;8.43;;;5.60;;
4214;SDS011;2121;48.062;7.850;2022-10-13T15:07:08;8.40;;;5.07;;
4214;SDS011;2121;48.062;7.850;2022-10-13T15:09:34;8.07;;;5.80;;
4214;SDS011;2121;48.062;7.850;2022-10-13T15:12:00;9.63;;;5.57;;
4214;SDS011;2121;48.062;7.850;2022-10-13T15:14:26;6.40;;;5.40;;
4214;SDS011;2121;48.062;7.850;2022-10-13T15:16:51;8.47;;;5.77;;
4214;SDS011;2121;48.062;7.850;2022-10-13T15:19:17;11.83;;;5.23;;
4214;SDS011;2121;48.062;7.850;2022-10-13T15:21:43;8.13;;;4.97;;
4214;SDS011;2121;48.062;7.850;2022-10-13T15:24:09;14.33;;;5.37;;
4214;SDS011;2121;48.062;7.850;2022-10-13T15:26:35;7.23;;;5.93;;
4214;SDS011;2121;48.062;7.850;2022-10-13T15:29:01;12.33;;;5.47;;
4214;SDS011;2121;48.062;7.850;2022-10-13T15:31:27;15.20;;;6.73;;
4214;SDS011;2121;48.062;7.850;2022-10-13T15:33:55;7.27;;;5.30;;
4214;SDS011;2121;48.062;7.850;2022-10-13T15:36:21;8.63;;;6.10;;
4214;SDS011;2121;48.062;7.850;2022-10-13T15:38:49;8.17;;;5.20;;
4214;SDS011;2121;48.062;7.850;2022-10-13T15:41:16;8.53;;;5.17;;
4214;SDS011;2121;48.062;7.850;2022-10-13T15:43:42;9.43;;;5.27;;
4214;SDS011;2121;48.062;7.850;2022-10-13T15:46:11;6.03;;;4.77;;
4214;SDS011;2121;48.062;7.850;2022-10-13T15:48:45;7.80;;;5.20;;
4214;SDS011;2121;48.062;7.850;2022-10-13T15:51:13;7.50;;;4.50;;
4214;SDS011;2121;48.062;7.850;2022-10-13T15:53:42;9.90;;;5.10;;
4214;SDS011;2121;48.062;7.850;2022-10-13T15:56:08;7.93;;;4.93;;
4214;SDS011;2121;48.062;7.850;2022-10-13T15:58:34;7.07;;;4.70;;
4214;SDS011;2121;48.062;7.850;2022-10-13T16:01:00;6.03;;;4.33;;
4214;SDS011;2121;48.062;7.850;2022-10-13T16:03:26;7.67;;;5.10;;
4214;SDS011;2121;48.062;7.850;2022-10-13T16:05:54;7.07;;;4.80;;
4214;SDS011;2121;48.062;7.850;2022-10-13T16:08:20;6.00;;;5.13;;
4214;SDS011;2121;48.062;7.850;2022-10-13T16:10:46;8.70;;;5.33;;
4214;SDS011;2121;48.062;7.850;2022-10-13T16:13:12;6.50;;;4.60;;
4214;SDS011;2121;48.062;7.850;2022-10-13T16:15:41;5.70;;;5.10;;
4214;SDS011;2121;48.062;7.850;2022-10-13T16:18:07;7.23;;;5.00;;
4214;SDS011;2121;48.062;7.850;2022-10-13T16:20:33;8.07;;;5.60;;
4214;SDS011;2121;48.062;7.850;2022-10-13T16:23:01;11.03;;;5.57;;
4214;SDS011;2121;48.062;7.850;2022-10-13T16:25:28;10.40;;;6.63;;
4214;SDS011;2121;48.062;7.850;2022-10-13T16:27:55;9.70;;;6.00;;
4214;SDS011;2121;48.062;7.850;2022-10-13T16:30:23;7.10;;;5.33;;
4214;SDS011;2121;48.062;7.850;2022-10-13T16:32:49;10.43;;;5.83;;
4214;SDS011;2121;48.062;7.850;2022-10-13T16:35:14;9.50;;;5.60;;
4214;SDS011;2121;48.062;7.850;2022-10-13T16:37:40;10.07;;;5.87;;
4214;SDS011;2121;48.062;7.850;2022-10-13T16:40:06;9.40;;;6.60;;
4214;SDS011;2121;48.062;7.850;2022-10-13T16:42:33;11.27;;;5.97;;
4214;SDS011;2121;48.062;7.850;2022-10-13T16:44:58;23.27;;;6.17;;
4214;SDS011;2121;48.062;7.850;2022-10-13T16:47:24;8.73;;;5.90;;
4214;SDS011;2121;48.062;7.850;2022-10-13T16:49:50;7.70;;;5.63;;
4214;SDS011;2121;48.062;7.850;2022-10-13T16:52:15;12.50;;;6.00;;
4214;SDS011;2121;48.062;7.850;2022-10-13T16:54:41;9.87;;;5.93;;
4214;SDS011;2121;48.062;7.850;2022-10-13T16:57:07;11.10;;;6.37;;
4214;SDS011;2121;48.062;7.850;2022-10-13T16:59:33;12.40;;;6.40;;
4214;SDS011;2121;48.062;7.850;2022-10-13T17:01:58;10.73;;;6.83;;